AirNav  
 
 527 users online  

37V Arapahoe Municipal Airport
Arapahoe, Nebraska, USA

GOING TO ARAPAHOE?


FAA INFORMATION EFFECTIVE 29 MARCH 2018

Location

FAA Identifier: 37V
Lat/Long: 40-20-29.7000N / 099-54-28.1000W
40-20.495000N / 099-54.468333W
40.3415833 / -99.9078056
(estimated)
Elevation: 2273 ft. / 693 m (estimated)
Variation: 08E (1985)
From city: 2 miles N of ARAPAHOE, NE
Time zone: UTC -5 (UTC -6 during Standard Time)
Zip code: 68922

Airport Operations

Airport use: Open to the public
Activation date: 03/1972
Control tower: no
ARTCC: DENVER CENTER
FSS: COLUMBUS FLIGHT SERVICE STATION
NOTAMs facility: OLU (NOTAM-D service available)
Attendance: 0900 - 2000
Wind indicator: yes
Segmented circle: no
Beacon: white-green (lighted land airport)
Operates sunset to sunrise.

Airport Communications

CTAF: 122.9

Nearby radio navigation aids

VOR radial/distance  VOR name  Freq  Var
OZBr163/(32.0)COZAD VOR109.0009E
MCKr067/32.5MC COOK VOR/DME115.3008E

 
NDB name  Hdg/Dist  Freq  Var  ID
HARRY STRUNK074/11.638905ECSB -.-. ... -...
NORTON350/29.223008ENRN -. .-. -.

Airport Services

Fuel available: 100LL
Parking: hangars and tiedowns
Airframe service: NONE
Powerplant service: NONE
Bottled oxygen: NONE
Bulk oxygen: NONE

Runway Information

Runway 15/33

Dimensions: 3000 x 50 ft. / 914 x 15 m
Surface: asphalt, in good condition
Runway edge lights: medium intensity
Gradient: NW.
RUNWAY 15  RUNWAY 33
Latitude: 40-20.732193N40-20.258738N
Longitude: 099-54.560927W099-54.375702W
Elevation: 2273.0 ft.2261.0 ft.
Gradient: 0.6%0.4% UP
Traffic pattern: leftleft
Runway heading: 155 magnetic, 163 true335 magnetic, 343 true
Markings: basic, in good conditionbasic, in good condition
Obstructions: none15 ft. road, 600 ft. from runway, 26:1 slope to clear

Airport Ownership and Management from official FAA records

Ownership: Publicly-owned
Owner: ARAPAHOE ARPT AUTHORITY
P.O. BOX 331
ARAPAHOE, NE 68922-0331
Phone 308-999-0073
TODD WEVERKA IS CHAIRMAN OF THE ARAPAHOE AIRPORT AUTHORITY (BS 7/2013)
Manager: TODD WEVERKA
P.O. BOX 331
ARAPAHOE, NE 68922-0331
Phone (308) 999-0073

Airport Operational Statistics

Aircraft based on the field: 3
Single engine airplanes: 3
    
Aircraft operations: avg 72/week *
93% local general aviation
7% transient general aviation
* for 12-month period ending 06 August 2015

Instrument Procedures

There are no published instrument procedures at 37V.

Some nearby airports with instrument procedures:

KCSB - Cambridge Municipal Airport (12 nm W)
KHDE - Brewster Field Airport (27 nm E)
KLXN - Jim Kelly Field Airport (28 nm N)
4D9 - Alma Municipal Airport (29 nm SE)
KNRN - Norton Municipal Airport (29 nm S)
 
Loc | Ops | Rwys | IFR | FBO | Links
Com | Nav | Svcs | Stats | Notes

Silverhawk Aviation, Inc.
AirBoss

 
Area around 37V (Arapahoe Municipal Airport)
 
Road maps at: MapQuest Bing Google
 
Aerial photo
WARNING: Photo may not be current or correct
Aerial photo of 37V (Arapahoe Municipal Airport)
Do you have a better or more recent aerial photo of Arapahoe Municipal Airport that you would like to share? If so, please send us your photo.

 
Sectional chart

 
Airport distance calculator
Flying to Arapahoe Municipal Airport? Find the distance to fly.

From to 37V

Sunrise and sunset
Times for 22-Apr-2018
 Local
(UTC-5)
 Zulu
(UTC)
Morning civil twilight06:2311:23
Sunrise06:5211:52
Sunset20:2401:24
Evening civil twilight20:5301:53

Current date and time
Zulu (UTC)  23-Apr-2018 04:57:53
Local (UTC-5)  22-Apr-2018 23:57:53
 
METAR
KLXN 
27nm N 
230435Z AUTO 00000KT 10SM CLR 06/03 A3018 RMK AO2 T00570031
KHDE 
28nm E 
230435Z AUTO 17003KT 10SM OVC065 10/04 A3017 RMK AO2 T01040043
KMCK 
32nm W 
230453Z AUTO 00000KT 10SM CLR 06/03 A3018 RMK AO2 SLP223 T00610028
KEAR 
47nm NE 
230356Z AUTO 00000KT 10SM OVC065 12/04 A3019 RMK AO2 SLP223 T01170039
TAF
KMCK 
32nm W 
221720Z 2218/2318 VRB04KT P6SM SCT015 SCT035 TEMPO 2218/2221 BKN015 FM230100 12004KT P6SM SCT040 FM230600 16006KT P6SM SCT040 SCT270
NOTAMs
Click for the latest NOTAMs
NOTAMs are issued by the DoD/FAA and will open in a separate window not controlled by AirNav.

 

 
 

FBO, Fuel Providers, and Aircraft Ground Support

  
 Business Name 
 
 Contact 
 
 Services / Description 
 
Fuel Prices
 
Comments
  
Arapahoe Airport Authority 308-962-7218
[web site]
Airport management, Aviation fuel, Aircraft parking (ramp or tiedown), Hangars, Flight training

More info about Arapahoe Airport Authority
independent
100LL
SS $3.99 
 Updated 12-Apr-2018
 
   write
SS=Self service
Update Fuel Prices
 

Would you like to see your business listed on this page?

 If your business provides an interesting product or service to pilots, flight crews, aircraft, or users of the Arapahoe Municipal Airport, you should consider listing it here.  To start the listing process, click on the button below
 
Add a business
 

Other Pages about Arapahoe Municipal Airport

Update a link
 
Copyright © AirNav, LLC. All rights reserved. Privacy Policy  Contact